Hovedside
METAR-TAF:

METAR-TAF

Lufthavner :

Røros lufthavn

Røros, Norge

breddegrad: 62-35N, lengdegrad: 011-21E, høyde over havet: 626 m

Gjeldene værobservasjon

Denne rapporten ble laget for 44 minutter siden, klokken 12:20 UTC
Vind 10 kt fra Vest-sørvest
Temperatur 16°C
Luftfuktighet 63%
Trykk 1008 hPa
Sikt 10 km eller mer
Brutte skyer i en høyde av 6200 ft
lette regnbyger

METAR: ENRO 151220Z 24010KT 9999 -SHRA BKN062 16/09 Q1008

Tid: 15:04 (13:04 UTC)

Varsel

Denne rapporten ble laget for 2 timer og 4 minutter siden, klokken 11:00 UTC
Varsel gyldig fra 15. klokken 12 UTC til 15. klokken 18 UTC
Vind 10 kt fra Sør-sørvest
Sikt 10 km eller mer
Spredte skyer i en høyde av 4000 ft

TAF: ENRO 151100Z 1512/1518 20010KT 9999 SCT040

Værobservasjoner og værvarsel for over 4000 flyplasser (METAR- og TAF-rapporter).

Tilgjengelige stasjoner er representert av de røde og gule prikkene på kartet.

Hold musepekeren over prikken for å se navnet på stasjonen.

Klikk så for å se værobservasjoner og -varsler.

For å forandre kartet kan du klikke på den grønne knappen med svart kryss for å zoome inn, på den grønne knappen med strek for å zoome ut, eller på de grønne pilene for å se tilstøtende kart.


METAR-TAF: